createdAt,value
2018-09-27T00:01:58.746Z,5.90
2018-09-27T00:06:55.291Z,4.65
2018-09-27T00:09:24.297Z,9.20
2018-09-27T00:11:52.957Z,9.60
2018-09-27T00:14:21.602Z,3.55
2018-09-27T00:16:50.218Z,2.85
2018-09-27T00:19:18.874Z,2.55
2018-09-27T00:21:47.541Z,4.40
2018-09-27T00:24:16.231Z,4.30
2018-09-27T00:29:13.041Z,6.10
2018-09-27T00:34:09.608Z,6.80
2018-09-27T00:36:38.400Z,5.00
2018-09-27T00:39:09.946Z,9.20
2018-09-27T00:41:38.543Z,4.70
2018-09-27T00:44:07.263Z,4.20
2018-09-27T00:46:35.991Z,7.05
2018-09-27T00:49:04.739Z,3.25
2018-09-27T00:51:33.486Z,3.65
2018-09-27T00:54:02.602Z,4.80
2018-09-27T00:56:31.374Z,4.30
2018-09-27T00:58:59.940Z,8.50
2018-09-27T01:01:29.177Z,5.03
2018-09-27T01:03:57.826Z,8.40
2018-09-27T01:06:26.464Z,5.60
2018-09-27T01:08:55.117Z,4.20
2018-09-27T01:13:51.499Z,5.30
2018-09-27T01:16:20.194Z,4.00
2018-09-27T01:18:48.775Z,2.90
2018-09-27T01:21:17.435Z,5.30
2018-09-27T01:23:46.029Z,4.60
2018-09-27T01:26:14.706Z,4.95
2018-09-27T01:28:43.302Z,7.30
2018-09-27T01:31:11.971Z,6.50
2018-09-27T01:33:40.556Z,6.00
2018-09-27T01:36:09.216Z,5.00
2018-09-27T01:38:37.816Z,3.90
2018-09-27T01:41:06.443Z,4.70
2018-09-27T01:43:35.098Z,4.63
2018-09-27T01:46:03.829Z,9.40
2018-09-27T01:48:32.433Z,3.43
2018-09-27T01:51:00.998Z,5.30
2018-09-27T01:53:29.684Z,6.53
2018-09-27T01:55:58.364Z,5.63
2018-09-27T01:58:27.222Z,4.23
2018-09-27T02:00:56.145Z,5.43
2018-09-27T02:03:24.780Z,6.40
2018-09-27T02:05:53.433Z,5.65
2018-09-27T02:08:22.064Z,4.95
2018-09-27T02:10:50.964Z,4.50
2018-09-27T02:13:19.795Z,8.70
2018-09-27T02:15:48.845Z,5.83
2018-09-27T02:18:17.561Z,4.90
2018-09-27T02:20:46.223Z,8.20
2018-09-27T02:23:14.947Z,5.85
2018-09-27T02:25:43.670Z,3.73
2018-09-27T02:28:12.272Z,6.10
2018-09-27T02:30:40.947Z,3.80
2018-09-27T02:33:09.688Z,2.57
2018-09-27T02:35:38.440Z,2.80
2018-09-27T02:38:07.686Z,6.70
2018-09-27T02:40:36.394Z,3.70
2018-09-27T02:43:05.060Z,3.97
2018-09-27T02:45:33.689Z,3.15
2018-09-27T02:48:02.590Z,4.40
2018-09-27T02:50:31.285Z,2.35
2018-09-27T02:53:00.012Z,3.87
2018-09-27T02:55:28.760Z,3.30
2018-09-27T02:57:57.557Z,2.40
2018-09-27T03:00:26.325Z,3.10
2018-09-27T03:02:54.949Z,1.80
2018-09-27T03:05:23.799Z,3.10
2018-09-27T03:07:52.398Z,1.95
2018-09-27T03:12:48.824Z,3.40
2018-09-27T03:15:17.594Z,2.20
2018-09-27T03:17:46.338Z,2.70
2018-09-27T03:20:14.971Z,3.55
2018-09-27T03:22:43.626Z,3.75
2018-09-27T03:25:12.407Z,3.60
2018-09-27T03:27:41.117Z,4.70
2018-09-27T03:30:09.784Z,11.53
2018-09-27T03:32:38.455Z,4.50
2018-09-27T03:35:07.137Z,6.17
2018-09-27T03:37:35.844Z,3.30
2018-09-27T03:40:04.487Z,3.15
2018-09-27T03:42:33.115Z,2.63
2018-09-27T03:45:01.745Z,29.10
2018-09-27T03:47:30.328Z,19.90
2018-09-27T03:49:59.525Z,33.60
2018-09-27T03:52:28.285Z,30.63
2018-09-27T03:54:56.831Z,21.65
2018-09-27T03:57:25.415Z,4.15
2018-09-27T03:59:54.080Z,15.20
2018-09-27T04:02:22.674Z,21.05
2018-09-27T04:07:19.044Z,22.35
2018-09-27T04:09:47.674Z,19.10
2018-09-27T04:12:16.317Z,46.30
2018-09-27T04:14:44.977Z,60.10
2018-09-27T04:17:13.532Z,51.63
2018-09-27T04:19:42.066Z,68.13
2018-09-27T04:22:10.748Z,34.77
2018-09-27T04:24:39.416Z,27.67
2018-09-27T04:27:08.012Z,33.43
2018-09-27T04:29:36.637Z,23.57
2018-09-27T04:32:05.216Z,10.67
2018-09-27T04:34:33.859Z,21.67
2018-09-27T04:37:02.499Z,14.17
2018-09-27T04:39:31.239Z,10.03
2018-09-27T04:41:59.991Z,10.10
2018-09-27T04:44:28.695Z,8.30
2018-09-27T04:46:57.508Z,18.50
2018-09-27T04:49:26.174Z,4.63
2018-09-27T04:51:54.865Z,4.70
2018-09-27T04:54:23.583Z,5.47
2018-09-27T04:56:52.127Z,9.23
2018-09-27T04:59:20.813Z,9.30
2018-09-27T05:01:49.393Z,23.43
2018-09-27T05:04:18.043Z,15.07
2018-09-27T05:06:46.698Z,15.40
2018-09-27T05:09:15.287Z,11.50
2018-09-27T05:11:44.983Z,11.33
2018-09-27T05:14:13.636Z,7.07
2018-09-27T05:16:42.589Z,7.30
2018-09-27T05:19:11.229Z,21.70
2018-09-27T05:21:39.887Z,29.23
2018-09-27T05:24:08.408Z,16.60
2018-09-27T05:26:37.042Z,10.93
2018-09-27T05:29:05.616Z,20.97
2018-09-27T05:31:34.215Z,6.10
2018-09-27T05:34:03.140Z,8.50
2018-09-27T05:36:31.801Z,6.97
2018-09-27T05:39:00.430Z,6.77
2018-09-27T05:41:29.137Z,19.43
2018-09-27T05:43:57.677Z,17.17
2018-09-27T05:46:26.392Z,13.20
2018-09-27T05:48:54.996Z,15.17
2018-09-27T05:51:23.636Z,11.50
2018-09-27T05:53:52.222Z,8.63
2018-09-27T05:56:20.789Z,11.73
2018-09-27T05:58:49.459Z,14.83
2018-09-27T06:01:18.107Z,7.00
2018-09-27T06:03:46.707Z,7.77
2018-09-27T06:06:15.304Z,11.47
2018-09-27T06:08:44.122Z,6.10
2018-09-27T06:11:12.900Z,4.83
2018-09-27T06:13:41.524Z,9.37
2018-09-27T06:16:10.140Z,12.60
2018-09-27T06:18:38.815Z,15.70
2018-09-27T06:21:07.417Z,18.00
2018-09-27T06:23:36.210Z,22.53
2018-09-27T06:26:04.948Z,19.43
2018-09-27T06:28:33.485Z,11.17
2018-09-27T06:31:02.082Z,8.37
2018-09-27T06:33:30.739Z,8.80
2018-09-27T06:35:59.375Z,12.50
2018-09-27T06:38:28.059Z,15.77
2018-09-27T06:40:56.661Z,14.30
2018-09-27T06:43:25.439Z,6.60
2018-09-27T06:45:54.237Z,6.73
2018-09-27T06:48:22.913Z,8.10
2018-09-27T06:50:52.199Z,8.10
2018-09-27T06:53:20.846Z,5.10
2018-09-27T06:55:49.602Z,15.20
2018-09-27T07:00:46.536Z,19.40
2018-09-27T07:03:15.232Z,12.20
2018-09-27T07:05:44.516Z,26.73
2018-09-27T07:08:13.228Z,18.77
2018-09-27T07:10:43.827Z,28.57
2018-09-27T07:13:12.512Z,39.30
2018-09-27T07:15:41.162Z,14.70
2018-09-27T07:18:09.993Z,9.40
2018-09-27T07:20:38.872Z,10.53
2018-09-27T07:23:08.952Z,12.93
2018-09-27T07:25:37.708Z,10.50
2018-09-27T07:28:06.643Z,8.20
2018-09-27T07:30:35.519Z,15.50
2018-09-27T07:33:04.292Z,11.47
2018-09-27T07:35:33.221Z,8.80
2018-09-27T07:38:01.995Z,11.90
2018-09-27T07:40:30.744Z,9.30
2018-09-27T07:42:59.547Z,15.53
2018-09-27T07:45:28.207Z,13.47
2018-09-27T07:47:56.959Z,10.83
2018-09-27T07:50:25.680Z,14.60
2018-09-27T07:52:54.215Z,19.83
2018-09-27T07:55:22.862Z,10.77
2018-09-27T07:57:51.554Z,6.73
2018-09-27T08:00:20.394Z,16.35
2018-09-27T08:20:05.613Z,7.80
2018-09-27T08:25:02.979Z,7.65
2018-09-27T08:27:31.855Z,10.60
2018-09-27T08:32:28.511Z,10.93
2018-09-27T08:34:58.009Z,16.00
2018-09-27T08:37:26.671Z,13.00
2018-09-27T08:39:55.251Z,10.40
2018-09-27T08:42:23.761Z,6.93
2018-09-27T08:47:20.236Z,9.50
2018-09-27T08:49:48.833Z,11.30
2018-09-27T08:52:17.443Z,10.15
2018-09-27T08:54:46.096Z,11.40
2018-09-27T08:57:14.988Z,7.30
2018-09-27T08:59:43.711Z,11.50
2018-09-27T09:04:40.170Z,10.30
2018-09-27T09:09:36.801Z,8.10
2018-09-27T09:12:05.633Z,8.30
2018-09-27T09:14:34.130Z,5.57
2018-09-27T09:17:02.745Z,7.80
2018-09-27T09:21:59.337Z,5.80
2018-09-27T09:29:23.659Z,9.70
2018-09-27T09:31:52.259Z,5.97
2018-09-27T09:34:21.020Z,11.30
2018-09-27T09:39:17.846Z,3.80
2018-09-27T10:38:39.312Z,1.60
2018-09-27T10:41:09.071Z,5.90
2018-09-27T11:24:22.485Z,2.70
2018-09-27T11:26:51.877Z,16.35
2018-09-27T11:41:59.075Z,1.50
2018-09-27T11:44:28.873Z,5.30
2018-09-27T11:54:29.160Z,1.60
2018-09-27T12:06:59.984Z,3.75
2018-09-27T12:49:02.038Z,5.50
2018-09-27T13:01:22.417Z,13.00
2018-09-27T13:13:42.715Z,2.80
2018-09-27T13:16:11.521Z,6.65
2018-09-27T13:35:55.591Z,14.55
2018-09-27T13:43:20.279Z,2.90
2018-09-27T13:45:49.084Z,22.40
2018-09-27T13:48:17.719Z,20.70
2018-09-27T13:53:14.394Z,10.40
2018-09-27T13:55:43.106Z,4.10
2018-09-27T14:00:39.689Z,6.63
2018-09-27T14:03:08.519Z,14.93
2018-09-27T14:05:37.445Z,6.13
2018-09-27T14:08:07.162Z,2.93
2018-09-27T14:10:36.335Z,6.93
2018-09-27T14:13:05.172Z,1.73
2018-09-27T14:15:34.454Z,5.27
2018-09-27T14:18:03.295Z,7.40
2018-09-27T14:20:32.069Z,13.50
2018-09-27T14:23:00.770Z,3.17
2018-09-27T14:25:29.913Z,1.90
2018-09-27T14:27:58.862Z,11.97
2018-09-27T14:30:27.583Z,5.55
2018-09-27T14:32:56.969Z,7.10
2018-09-27T14:35:26.009Z,1.53
2018-09-27T14:37:54.912Z,4.20
2018-09-27T14:40:25.232Z,1.60
2018-09-27T14:42:53.922Z,3.83
2018-09-27T14:47:50.617Z,4.90
2018-09-27T15:00:11.018Z,8.60
2018-09-27T15:02:39.886Z,2.60
2018-09-27T15:05:08.551Z,1.20
2018-09-27T15:12:33.540Z,5.50
2018-09-27T15:17:30.228Z,4.10
2018-09-27T16:53:43.395Z,1.30
2018-09-27T16:56:12.157Z,2.20
2018-09-27T17:03:36.584Z,1.55
2018-09-27T17:40:46.073Z,1.55
2018-09-27T18:32:48.656Z,3.60
2018-09-27T18:37:47.309Z,5.60
2018-09-27T18:40:16.900Z,6.90
2018-09-27T18:42:47.440Z,5.50
2018-09-27T18:45:17.994Z,5.05
2018-09-27T18:47:47.391Z,7.35
2018-09-27T18:50:16.478Z,6.63
